sensor_id;sensor_type;location;lat;lon;timestamp;temperature;humidity
4518;DHT22;2271;49.464;11.070;2023-11-21T00:02:14;10.00;99.90
4518;DHT22;2271;49.464;11.070;2023-11-21T00:04:40;10.00;99.90
4518;DHT22;2271;49.464;11.070;2023-11-21T00:07:06;9.90;99.90
4518;DHT22;2271;49.464;11.070;2023-11-21T00:09:32;9.90;99.90
4518;DHT22;2271;49.464;11.070;2023-11-21T00:11:58;10.00;99.90
4518;DHT22;2271;49.464;11.070;2023-11-21T00:14:27;10.00;99.90
4518;DHT22;2271;49.464;11.070;2023-11-21T00:16:53;10.00;99.90
4518;DHT22;2271;49.464;11.070;2023-11-21T00:19:19;10.00;99.90
4518;DHT22;2271;49.464;11.070;2023-11-21T00:21:44;10.00;99.90
4518;DHT22;2271;49.464;11.070;2023-11-21T00:24:11;10.00;99.90
4518;DHT22;2271;49.464;11.070;2023-11-21T00:26:39;10.00;99.90
4518;DHT22;2271;49.464;11.070;2023-11-21T00:29:05;10.00;99.90
4518;DHT22;2271;49.464;11.070;2023-11-21T00:31:34;10.00;99.90
4518;DHT22;2271;49.464;11.070;2023-11-21T00:34:02;9.90;99.90
4518;DHT22;2271;49.464;11.070;2023-11-21T00:36:29;9.90;99.90
4518;DHT22;2271;49.464;11.070;2023-11-21T00:38:54;9.90;99.90
4518;DHT22;2271;49.464;11.070;2023-11-21T00:41:21;9.90;99.90
4518;DHT22;2271;49.464;11.070;2023-11-21T00:43:46;9.80;99.90
4518;DHT22;2271;49.464;11.070;2023-11-21T00:46:12;9.80;99.90
4518;DHT22;2271;49.464;11.070;2023-11-21T00:48:39;9.80;99.90
4518;DHT22;2271;49.464;11.070;2023-11-21T00:51:04;9.60;99.90
4518;DHT22;2271;49.464;11.070;2023-11-21T00:53:31;9.60;99.90
4518;DHT22;2271;49.464;11.070;2023-11-21T00:55:57;9.60;99.90
4518;DHT22;2271;49.464;11.070;2023-11-21T00:58:26;9.70;99.90
4518;DHT22;2271;49.464;11.070;2023-11-21T01:00:52;9.60;99.90
4518;DHT22;2271;49.464;11.070;2023-11-21T01:03:18;9.50;99.90
4518;DHT22;2271;49.464;11.070;2023-11-21T01:05:44;9.60;99.90
4518;DHT22;2271;49.464;11.070;2023-11-21T01:08:09;9.60;99.90
4518;DHT22;2271;49.464;11.070;2023-11-21T01:10:36;9.60;99.90
4518;DHT22;2271;49.464;11.070;2023-11-21T01:13:02;9.60;99.90
4518;DHT22;2271;49.464;11.070;2023-11-21T01:15:30;9.60;99.90
4518;DHT22;2271;49.464;11.070;2023-11-21T01:17:56;9.70;99.90
4518;DHT22;2271;49.464;11.070;2023-11-21T01:20:21;9.70;99.90
4518;DHT22;2271;49.464;11.070;2023-11-21T01:22:47;9.70;99.90
4518;DHT22;2271;49.464;11.070;2023-11-21T01:25:14;9.70;99.90
4518;DHT22;2271;49.464;11.070;2023-11-21T01:27:42;9.70;99.90
4518;DHT22;2271;49.464;11.070;2023-11-21T01:30:08;9.80;99.90
4518;DHT22;2271;49.464;11.070;2023-11-21T01:32:36;9.80;99.90
4518;DHT22;2271;49.464;11.070;2023-11-21T01:35:02;9.80;99.90
4518;DHT22;2271;49.464;11.070;2023-11-21T01:37:28;9.80;99.90
4518;DHT22;2271;49.464;11.070;2023-11-21T01:39:54;9.80;99.90
4518;DHT22;2271;49.464;11.070;2023-11-21T01:42:21;9.80;99.90
4518;DHT22;2271;49.464;11.070;2023-11-21T01:44:46;9.90;99.90
4518;DHT22;2271;49.464;11.070;2023-11-21T01:47:13;9.90;99.90
4518;DHT22;2271;49.464;11.070;2023-11-21T01:49:39;9.90;99.90
4518;DHT22;2271;49.464;11.070;2023-11-21T01:52:06;9.80;99.90
4518;DHT22;2271;49.464;11.070;2023-11-21T01:54:32;9.80;99.90
4518;DHT22;2271;49.464;11.070;2023-11-21T01:56:58;9.80;99.90
4518;DHT22;2271;49.464;11.070;2023-11-21T01:59:35;9.80;99.90
4518;DHT22;2271;49.464;11.070;2023-11-21T02:02:06;9.80;99.90
4518;DHT22;2271;49.464;11.070;2023-11-21T02:04:35;9.80;99.90
4518;DHT22;2271;49.464;11.070;2023-11-21T02:07:04;9.80;99.90
4518;DHT22;2271;49.464;11.070;2023-11-21T02:09:32;9.80;99.90
4518;DHT22;2271;49.464;11.070;2023-11-21T02:11:59;9.80;99.90
4518;DHT22;2271;49.464;11.070;2023-11-21T02:14:26;9.80;99.90
4518;DHT22;2271;49.464;11.070;2023-11-21T02:16:54;9.80;99.90
4518;DHT22;2271;49.464;11.070;2023-11-21T02:19:22;9.80;99.90
4518;DHT22;2271;49.464;11.070;2023-11-21T02:21:52;9.80;99.90
4518;DHT22;2271;49.464;11.070;2023-11-21T02:24:22;9.80;99.90
4518;DHT22;2271;49.464;11.070;2023-11-21T02:26:51;9.70;99.90
4518;DHT22;2271;49.464;11.070;2023-11-21T02:29:20;9.70;99.90
4518;DHT22;2271;49.464;11.070;2023-11-21T02:31:54;9.70;99.90
4518;DHT22;2271;49.464;11.070;2023-11-21T02:34:21;9.70;99.90
4518;DHT22;2271;49.464;11.070;2023-11-21T02:36:47;9.70;99.90
4518;DHT22;2271;49.464;11.070;2023-11-21T02:39:15;9.70;99.90
4518;DHT22;2271;49.464;11.070;2023-11-21T02:41:42;9.60;99.90
4518;DHT22;2271;49.464;11.070;2023-11-21T02:44:08;9.60;99.90
4518;DHT22;2271;49.464;11.070;2023-11-21T02:46:35;9.60;99.90
4518;DHT22;2271;49.464;11.070;2023-11-21T02:49:04;9.70;99.90
4518;DHT22;2271;49.464;11.070;2023-11-21T02:51:32;9.60;99.90
4518;DHT22;2271;49.464;11.070;2023-11-21T02:53:57;9.60;99.90
4518;DHT22;2271;49.464;11.070;2023-11-21T02:56:27;9.50;99.90
4518;DHT22;2271;49.464;11.070;2023-11-21T02:58:55;9.60;99.90
4518;DHT22;2271;49.464;11.070;2023-11-21T03:01:21;9.50;99.90
4518;DHT22;2271;49.464;11.070;2023-11-21T03:03:49;9.40;99.90
4518;DHT22;2271;49.464;11.070;2023-11-21T03:06:17;9.40;99.90
4518;DHT22;2271;49.464;11.070;2023-11-21T03:08:43;9.40;99.90
4518;DHT22;2271;49.464;11.070;2023-11-21T03:11:08;9.40;99.90
4518;DHT22;2271;49.464;11.070;2023-11-21T03:13:34;9.50;99.90
4518;DHT22;2271;49.464;11.070;2023-11-21T03:15:59;9.60;99.90
4518;DHT22;2271;49.464;11.070;2023-11-21T03:18:25;9.60;99.90
4518;DHT22;2271;49.464;11.070;2023-11-21T03:20:52;9.70;99.90
4518;DHT22;2271;49.464;11.070;2023-11-21T03:23:18;9.70;99.90
4518;DHT22;2271;49.464;11.070;2023-11-21T03:25:44;9.70;99.90
4518;DHT22;2271;49.464;11.070;2023-11-21T03:28:09;9.70;99.90
4518;DHT22;2271;49.464;11.070;2023-11-21T03:30:35;9.70;99.90
4518;DHT22;2271;49.464;11.070;2023-11-21T03:33:01;9.70;99.90
4518;DHT22;2271;49.464;11.070;2023-11-21T03:35:26;9.60;99.90
4518;DHT22;2271;49.464;11.070;2023-11-21T03:37:52;9.60;99.90
4518;DHT22;2271;49.464;11.070;2023-11-21T03:40:18;9.60;99.90
4518;DHT22;2271;49.464;11.070;2023-11-21T03:42:43;9.50;99.90
4518;DHT22;2271;49.464;11.070;2023-11-21T03:45:09;9.50;99.90
4518;DHT22;2271;49.464;11.070;2023-11-21T03:47:35;9.50;99.90
4518;DHT22;2271;49.464;11.070;2023-11-21T03:50:01;9.60;99.90
4518;DHT22;2271;49.464;11.070;2023-11-21T03:52:26;9.60;99.90
4518;DHT22;2271;49.464;11.070;2023-11-21T03:54:53;9.60;99.90
4518;DHT22;2271;49.464;11.070;2023-11-21T03:57:20;9.60;99.90
4518;DHT22;2271;49.464;11.070;2023-11-21T03:59:46;9.60;99.90
4518;DHT22;2271;49.464;11.070;2023-11-21T04:02:12;9.70;99.90
4518;DHT22;2271;49.464;11.070;2023-11-21T04:04:38;9.70;99.90
4518;DHT22;2271;49.464;11.070;2023-11-21T04:07:04;9.80;99.90
4518;DHT22;2271;49.464;11.070;2023-11-21T04:09:29;9.70;99.90
4518;DHT22;2271;49.464;11.070;2023-11-21T04:11:55;9.70;99.90
4518;DHT22;2271;49.464;11.070;2023-11-21T04:14:21;9.70;99.90
4518;DHT22;2271;49.464;11.070;2023-11-21T04:16:47;9.70;99.90
4518;DHT22;2271;49.464;11.070;2023-11-21T04:19:13;9.70;99.90
4518;DHT22;2271;49.464;11.070;2023-11-21T04:21:42;9.70;99.90
4518;DHT22;2271;49.464;11.070;2023-11-21T04:24:08;9.70;99.90
4518;DHT22;2271;49.464;11.070;2023-11-21T04:26:34;9.80;99.90
4518;DHT22;2271;49.464;11.070;2023-11-21T04:28:59;9.80;99.90
4518;DHT22;2271;49.464;11.070;2023-11-21T04:31:25;9.80;99.90
4518;DHT22;2271;49.464;11.070;2023-11-21T04:33:51;9.70;99.90
4518;DHT22;2271;49.464;11.070;2023-11-21T04:36:16;9.70;99.90
4518;DHT22;2271;49.464;11.070;2023-11-21T04:38:42;9.70;99.90
4518;DHT22;2271;49.464;11.070;2023-11-21T04:41:08;9.70;99.90
4518;DHT22;2271;49.464;11.070;2023-11-21T04:43:34;9.70;99.90
4518;DHT22;2271;49.464;11.070;2023-11-21T04:45:59;9.80;99.90
4518;DHT22;2271;49.464;11.070;2023-11-21T04:48:25;9.80;99.90
4518;DHT22;2271;49.464;11.070;2023-11-21T04:50:51;9.80;99.90
4518;DHT22;2271;49.464;11.070;2023-11-21T04:53:17;9.80;99.90
4518;DHT22;2271;49.464;11.070;2023-11-21T04:55:43;9.80;99.90
4518;DHT22;2271;49.464;11.070;2023-11-21T04:58:09;9.70;99.90
4518;DHT22;2271;49.464;11.070;2023-11-21T05:00:35;9.70;99.90
4518;DHT22;2271;49.464;11.070;2023-11-21T05:03:02;9.70;99.90
4518;DHT22;2271;49.464;11.070;2023-11-21T05:05:29;9.80;99.90
4518;DHT22;2271;49.464;11.070;2023-11-21T05:07:57;9.80;99.90
4518;DHT22;2271;49.464;11.070;2023-11-21T05:10:23;9.80;99.90
4518;DHT22;2271;49.464;11.070;2023-11-21T05:12:49;9.80;99.90
4518;DHT22;2271;49.464;11.070;2023-11-21T05:15:16;9.80;99.90
4518;DHT22;2271;49.464;11.070;2023-11-21T05:17:43;9.80;99.90
4518;DHT22;2271;49.464;11.070;2023-11-21T05:20:13;9.80;99.90
4518;DHT22;2271;49.464;11.070;2023-11-21T05:22:40;9.80;99.90
4518;DHT22;2271;49.464;11.070;2023-11-21T05:25:06;9.80;99.90
4518;DHT22;2271;49.464;11.070;2023-11-21T05:27:36;9.80;99.90
4518;DHT22;2271;49.464;11.070;2023-11-21T05:30:03;9.80;99.90
4518;DHT22;2271;49.464;11.070;2023-11-21T05:32:33;9.70;99.90
4518;DHT22;2271;49.464;11.070;2023-11-21T05:34:59;9.80;99.90
4518;DHT22;2271;49.464;11.070;2023-11-21T05:37:24;9.80;99.90
4518;DHT22;2271;49.464;11.070;2023-11-21T05:39:53;9.80;99.90
4518;DHT22;2271;49.464;11.070;2023-11-21T05:42:22;9.80;99.90
4518;DHT22;2271;49.464;11.070;2023-11-21T05:44:47;9.80;99.90
4518;DHT22;2271;49.464;11.070;2023-11-21T05:47:13;9.80;99.90
4518;DHT22;2271;49.464;11.070;2023-11-21T05:49:39;9.80;99.90
4518;DHT22;2271;49.464;11.070;2023-11-21T05:52:04;9.70;99.90
4518;DHT22;2271;49.464;11.070;2023-11-21T05:54:31;9.60;99.90
4518;DHT22;2271;49.464;11.070;2023-11-21T05:56:56;9.70;99.90
4518;DHT22;2271;49.464;11.070;2023-11-21T05:59:23;9.70;99.90
4518;DHT22;2271;49.464;11.070;2023-11-21T06:01:48;9.70;99.90
4518;DHT22;2271;49.464;11.070;2023-11-21T06:04:14;9.70;99.90
4518;DHT22;2271;49.464;11.070;2023-11-21T06:06:40;9.70;99.90
4518;DHT22;2271;49.464;11.070;2023-11-21T06:09:05;9.70;99.90
4518;DHT22;2271;49.464;11.070;2023-11-21T06:11:33;9.70;99.90
4518;DHT22;2271;49.464;11.070;2023-11-21T06:13:59;9.80;99.90
4518;DHT22;2271;49.464;11.070;2023-11-21T06:16:25;9.80;99.90
4518;DHT22;2271;49.464;11.070;2023-11-21T06:18:51;9.80;99.90
4518;DHT22;2271;49.464;11.070;2023-11-21T06:21:16;9.80;99.90
4518;DHT22;2271;49.464;11.070;2023-11-21T06:23:43;9.80;99.90
4518;DHT22;2271;49.464;11.070;2023-11-21T06:26:08;9.80;99.90
4518;DHT22;2271;49.464;11.070;2023-11-21T06:28:35;9.70;99.90
4518;DHT22;2271;49.464;11.070;2023-11-21T06:31:01;9.70;99.90
4518;DHT22;2271;49.464;11.070;2023-11-21T06:33:31;9.70;99.90
4518;DHT22;2271;49.464;11.070;2023-11-21T06:35:57;9.70;99.90
4518;DHT22;2271;49.464;11.070;2023-11-21T06:38:25;9.70;99.90
4518;DHT22;2271;49.464;11.070;2023-11-21T06:40:53;9.70;99.90
4518;DHT22;2271;49.464;11.070;2023-11-21T06:43:20;9.70;99.90
4518;DHT22;2271;49.464;11.070;2023-11-21T06:45:47;9.70;99.90
4518;DHT22;2271;49.464;11.070;2023-11-21T06:48:13;9.70;99.90
4518;DHT22;2271;49.464;11.070;2023-11-21T06:50:38;9.70;99.90
4518;DHT22;2271;49.464;11.070;2023-11-21T06:53:04;9.70;99.90
4518;DHT22;2271;49.464;11.070;2023-11-21T06:55:32;9.70;99.90
4518;DHT22;2271;49.464;11.070;2023-11-21T06:57:58;9.70;99.90
4518;DHT22;2271;49.464;11.070;2023-11-21T07:00:25;9.60;99.90
4518;DHT22;2271;49.464;11.070;2023-11-21T07:02:53;9.60;99.90
4518;DHT22;2271;49.464;11.070;2023-11-21T07:05:20;9.70;99.90
4518;DHT22;2271;49.464;11.070;2023-11-21T07:07:47;9.70;99.90
4518;DHT22;2271;49.464;11.070;2023-11-21T07:10:13;9.70;99.90
4518;DHT22;2271;49.464;11.070;2023-11-21T07:12:40;9.70;99.90
4518;DHT22;2271;49.464;11.070;2023-11-21T07:15:06;9.70;99.90
4518;DHT22;2271;49.464;11.070;2023-11-21T07:17:35;9.80;99.90
4518;DHT22;2271;49.464;11.070;2023-11-21T07:20:01;9.80;99.90
4518;DHT22;2271;49.464;11.070;2023-11-21T07:22:28;9.80;99.90
4518;DHT22;2271;49.464;11.070;2023-11-21T07:24:53;9.80;99.90
4518;DHT22;2271;49.464;11.070;2023-11-21T07:27:19;9.90;99.90
4518;DHT22;2271;49.464;11.070;2023-11-21T07:29:45;9.90;99.90
4518;DHT22;2271;49.464;11.070;2023-11-21T07:32:10;9.90;99.90
4518;DHT22;2271;49.464;11.070;2023-11-21T07:34:36;9.90;99.90
4518;DHT22;2271;49.464;11.070;2023-11-21T07:37:03;9.90;99.90
4518;DHT22;2271;49.464;11.070;2023-11-21T07:39:29;9.90;99.90
4518;DHT22;2271;49.464;11.070;2023-11-21T07:41:55;9.90;99.90
4518;DHT22;2271;49.464;11.070;2023-11-21T07:44:21;9.90;99.90
4518;DHT22;2271;49.464;11.070;2023-11-21T07:46:48;9.90;99.90
4518;DHT22;2271;49.464;11.070;2023-11-21T07:49:15;10.00;99.90
4518;DHT22;2271;49.464;11.070;2023-11-21T07:51:43;10.10;99.90
4518;DHT22;2271;49.464;11.070;2023-11-21T07:54:09;10.10;99.90
4518;DHT22;2271;49.464;11.070;2023-11-21T07:56:35;10.20;99.90
4518;DHT22;2271;49.464;11.070;2023-11-21T07:59:01;10.20;99.90
4518;DHT22;2271;49.464;11.070;2023-11-21T08:01:26;10.10;99.90
4518;DHT22;2271;49.464;11.070;2023-11-21T08:03:54;10.10;99.90
4518;DHT22;2271;49.464;11.070;2023-11-21T08:06:23;10.10;99.90
4518;DHT22;2271;49.464;11.070;2023-11-21T08:08:49;10.10;99.90
4518;DHT22;2271;49.464;11.070;2023-11-21T08:11:15;10.10;99.90
4518;DHT22;2271;49.464;11.070;2023-11-21T08:13:40;10.10;99.90
4518;DHT22;2271;49.464;11.070;2023-11-21T08:16:06;10.10;99.90
4518;DHT22;2271;49.464;11.070;2023-11-21T08:18:32;10.10;99.90
4518;DHT22;2271;49.464;11.070;2023-11-21T08:20:59;10.10;99.90
4518;DHT22;2271;49.464;11.070;2023-11-21T08:23:26;10.10;99.90
4518;DHT22;2271;49.464;11.070;2023-11-21T08:25:54;10.10;99.90
4518;DHT22;2271;49.464;11.070;2023-11-21T08:28:21;10.10;99.90
4518;DHT22;2271;49.464;11.070;2023-11-21T08:30:52;10.10;99.90
4518;DHT22;2271;49.464;11.070;2023-11-21T08:33:18;10.00;99.90
4518;DHT22;2271;49.464;11.070;2023-11-21T08:35:44;10.00;99.90
4518;DHT22;2271;49.464;11.070;2023-11-21T08:38:09;10.00;99.90
4518;DHT22;2271;49.464;11.070;2023-11-21T08:40:36;10.00;99.90
4518;DHT22;2271;49.464;11.070;2023-11-21T08:43:01;10.10;99.90
4518;DHT22;2271;49.464;11.070;2023-11-21T08:45:30;10.10;99.90
4518;DHT22;2271;49.464;11.070;2023-11-21T08:47:56;10.10;99.90
4518;DHT22;2271;49.464;11.070;2023-11-21T08:50:21;10.10;99.90
4518;DHT22;2271;49.464;11.070;2023-11-21T08:52:50;10.10;99.90
4518;DHT22;2271;49.464;11.070;2023-11-21T08:55:16;10.10;99.90
4518;DHT22;2271;49.464;11.070;2023-11-21T08:57:44;10.10;99.90
4518;DHT22;2271;49.464;11.070;2023-11-21T09:00:10;10.20;99.90
4518;DHT22;2271;49.464;11.070;2023-11-21T09:02:38;10.20;99.90
4518;DHT22;2271;49.464;11.070;2023-11-21T09:05:05;10.20;99.90
4518;DHT22;2271;49.464;11.070;2023-11-21T09:07:31;10.30;99.90
4518;DHT22;2271;49.464;11.070;2023-11-21T09:09:56;10.30;99.90
4518;DHT22;2271;49.464;11.070;2023-11-21T09:12:22;10.30;99.90
4518;DHT22;2271;49.464;11.070;2023-11-21T09:14:50;10.30;99.90
4518;DHT22;2271;49.464;11.070;2023-11-21T09:17:16;10.30;99.90
4518;DHT22;2271;49.464;11.070;2023-11-21T09:19:41;10.40;99.90
4518;DHT22;2271;49.464;11.070;2023-11-21T09:22:08;10.40;99.90
4518;DHT22;2271;49.464;11.070;2023-11-21T09:24:35;10.40;99.90
4518;DHT22;2271;49.464;11.070;2023-11-21T09:27:00;10.40;99.90
4518;DHT22;2271;49.464;11.070;2023-11-21T09:29:27;10.40;99.90
4518;DHT22;2271;49.464;11.070;2023-11-21T09:31:52;10.40;99.90
4518;DHT22;2271;49.464;11.070;2023-11-21T09:34:20;10.40;99.90
4518;DHT22;2271;49.464;11.070;2023-11-21T09:36:46;10.40;99.90
4518;DHT22;2271;49.464;11.070;2023-11-21T09:39:12;10.40;99.90
4518;DHT22;2271;49.464;11.070;2023-11-21T09:41:53;10.40;99.90
4518;DHT22;2271;49.464;11.070;2023-11-21T09:44:32;10.40;99.90
4518;DHT22;2271;49.464;11.070;2023-11-21T09:47:00;10.40;99.90
4518;DHT22;2271;49.464;11.070;2023-11-21T09:49:28;10.50;99.90
4518;DHT22;2271;49.464;11.070;2023-11-21T09:51:55;10.40;99.90
4518;DHT22;2271;49.464;11.070;2023-11-21T09:54:25;10.50;99.90
4518;DHT22;2271;49.464;11.070;2023-11-21T09:56:52;10.30;99.90
4518;DHT22;2271;49.464;11.070;2023-11-21T09:59:17;10.10;99.90
4518;DHT22;2271;49.464;11.070;2023-11-21T10:01:44;10.10;99.90
4518;DHT22;2271;49.464;11.070;2023-11-21T10:04:12;10.20;99.90
4518;DHT22;2271;49.464;11.070;2023-11-21T10:06:41;10.30;99.90
4518;DHT22;2271;49.464;11.070;2023-11-21T10:09:09;10.40;99.90
4518;DHT22;2271;49.464;11.070;2023-11-21T10:11:43;10.50;99.90
4518;DHT22;2271;49.464;11.070;2023-11-21T10:14:12;10.20;99.90
4518;DHT22;2271;49.464;11.070;2023-11-21T10:16:40;10.10;99.90
4518;DHT22;2271;49.464;11.070;2023-11-21T10:19:06;10.10;99.90
4518;DHT22;2271;49.464;11.070;2023-11-21T10:21:35;10.10;99.90
4518;DHT22;2271;49.464;11.070;2023-11-21T10:24:01;10.30;99.90
4518;DHT22;2271;49.464;11.070;2023-11-21T10:26:30;10.40;99.90
4518;DHT22;2271;49.464;11.070;2023-11-21T10:29:03;10.30;99.90
4518;DHT22;2271;49.464;11.070;2023-11-21T10:31:32;10.40;99.90
4518;DHT22;2271;49.464;11.070;2023-11-21T10:34:20;10.50;99.90
4518;DHT22;2271;49.464;11.070;2023-11-21T10:36:47;10.60;99.90
4518;DHT22;2271;49.464;11.070;2023-11-21T10:39:20;10.50;99.90
4518;DHT22;2271;49.464;11.070;2023-11-21T10:41:49;10.30;99.90
4518;DHT22;2271;49.464;11.070;2023-11-21T10:44:15;10.10;99.90
4518;DHT22;2271;49.464;11.070;2023-11-21T10:46:55;10.20;99.90
4518;DHT22;2271;49.464;11.070;2023-11-21T10:49:24;10.20;99.90
4518;DHT22;2271;49.464;11.070;2023-11-21T10:51:50;10.20;99.90
4518;DHT22;2271;49.464;11.070;2023-11-21T10:54:19;10.20;99.90
4518;DHT22;2271;49.464;11.070;2023-11-21T10:56:47;10.30;99.90
4518;DHT22;2271;49.464;11.070;2023-11-21T10:59:13;10.30;99.90
4518;DHT22;2271;49.464;11.070;2023-11-21T11:01:43;10.30;99.90
4518;DHT22;2271;49.464;11.070;2023-11-21T11:04:10;10.30;99.90
4518;DHT22;2271;49.464;11.070;2023-11-21T11:07:05;10.50;99.90
4518;DHT22;2271;49.464;11.070;2023-11-21T11:09:35;10.70;99.90
4518;DHT22;2271;49.464;11.070;2023-11-21T11:12:03;10.90;99.90
4518;DHT22;2271;49.464;11.070;2023-11-21T11:14:32;11.00;99.90
4518;DHT22;2271;49.464;11.070;2023-11-21T11:16:58;10.70;99.90
4518;DHT22;2271;49.464;11.070;2023-11-21T11:19:26;10.40;99.90
4518;DHT22;2271;49.464;11.070;2023-11-21T11:28:00;10.30;99.90
4518;DHT22;2271;49.464;11.070;2023-11-21T11:33:07;10.20;99.90
4518;DHT22;2271;49.464;11.070;2023-11-21T11:38:07;10.20;99.90
4518;DHT22;2271;49.464;11.070;2023-11-21T11:40:46;10.30;99.90
4518;DHT22;2271;49.464;11.070;2023-11-21T11:43:12;10.30;99.90
4518;DHT22;2271;49.464;11.070;2023-11-21T11:45:38;10.40;99.90
4518;DHT22;2271;49.464;11.070;2023-11-21T11:48:08;11.70;99.90
4518;DHT22;2271;49.464;11.070;2023-11-21T11:50:42;13.20;99.90
4518;DHT22;2271;49.464;11.070;2023-11-21T11:53:26;14.10;99.90
4518;DHT22;2271;49.464;11.070;2023-11-21T11:56:24;13.90;99.90
4518;DHT22;2271;49.464;11.070;2023-11-21T11:58:55;13.00;99.90
4518;DHT22;2271;49.464;11.070;2023-11-21T12:01:24;12.40;99.90
4518;DHT22;2271;49.464;11.070;2023-11-21T12:06:42;11.60;99.90
4518;DHT22;2271;49.464;11.070;2023-11-21T12:09:23;11.20;99.90
4518;DHT22;2271;49.464;11.070;2023-11-21T12:11:50;11.10;99.90
4518;DHT22;2271;49.464;11.070;2023-11-21T12:14:16;11.00;99.90
4518;DHT22;2271;49.464;11.070;2023-11-21T12:16:42;10.90;99.90
4518;DHT22;2271;49.464;11.070;2023-11-21T12:19:09;10.80;99.90
4518;DHT22;2271;49.464;11.070;2023-11-21T12:21:36;10.80;99.90
4518;DHT22;2271;49.464;11.070;2023-11-21T12:24:02;10.90;99.90
4518;DHT22;2271;49.464;11.070;2023-11-21T12:26:28;11.00;99.90
4518;DHT22;2271;49.464;11.070;2023-11-21T12:28:54;11.10;99.90
4518;DHT22;2271;49.464;11.070;2023-11-21T12:31:24;11.00;99.90
4518;DHT22;2271;49.464;11.070;2023-11-21T12:33:50;11.00;99.90
4518;DHT22;2271;49.464;11.070;2023-11-21T12:36:16;10.90;99.90
4518;DHT22;2271;49.464;11.070;2023-11-21T12:38:42;10.90;99.90
4518;DHT22;2271;49.464;11.070;2023-11-21T12:41:09;11.00;99.90
4518;DHT22;2271;49.464;11.070;2023-11-21T12:43:36;10.90;99.90
4518;DHT22;2271;49.464;11.070;2023-11-21T12:46:05;10.90;99.90
4518;DHT22;2271;49.464;11.070;2023-11-21T12:48:32;10.80;99.90
4518;DHT22;2271;49.464;11.070;2023-11-21T12:50:57;10.90;99.90
4518;DHT22;2271;49.464;11.070;2023-11-21T12:53:26;11.00;99.90
4518;DHT22;2271;49.464;11.070;2023-11-21T12:55:51;11.00;99.90
4518;DHT22;2271;49.464;11.070;2023-11-21T12:58:17;11.00;99.90
4518;DHT22;2271;49.464;11.070;2023-11-21T13:00:49;11.00;99.90
4518;DHT22;2271;49.464;11.070;2023-11-21T13:03:16;11.10;99.90
4518;DHT22;2271;49.464;11.070;2023-11-21T13:05:44;11.10;99.90
4518;DHT22;2271;49.464;11.070;2023-11-21T13:08:12;10.90;99.90
4518;DHT22;2271;49.464;11.070;2023-11-21T13:10:40;10.80;99.90
4518;DHT22;2271;49.464;11.070;2023-11-21T13:13:09;10.80;99.90
4518;DHT22;2271;49.464;11.070;2023-11-21T13:15:39;10.80;99.90
4518;DHT22;2271;49.464;11.070;2023-11-21T13:18:06;10.90;99.90
4518;DHT22;2271;49.464;11.070;2023-11-21T13:20:32;10.80;99.90
4518;DHT22;2271;49.464;11.070;2023-11-21T13:22:58;10.80;99.90
4518;DHT22;2271;49.464;11.070;2023-11-21T13:25:29;10.80;99.90
4518;DHT22;2271;49.464;11.070;2023-11-21T13:27:58;10.90;99.90
4518;DHT22;2271;49.464;11.070;2023-11-21T13:30:27;10.90;99.90
4518;DHT22;2271;49.464;11.070;2023-11-21T13:33:02;11.00;99.90
4518;DHT22;2271;49.464;11.070;2023-11-21T13:35:31;11.00;99.90
4518;DHT22;2271;49.464;11.070;2023-11-21T13:38:15;11.00;99.90
4518;DHT22;2271;49.464;11.070;2023-11-21T13:40:49;11.10;99.90
4518;DHT22;2271;49.464;11.070;2023-11-21T13:43:19;11.10;99.90
4518;DHT22;2271;49.464;11.070;2023-11-21T13:45:46;11.10;99.90
4518;DHT22;2271;49.464;11.070;2023-11-21T13:48:13;11.20;99.90
4518;DHT22;2271;49.464;11.070;2023-11-21T13:50:50;11.80;99.90
4518;DHT22;2271;49.464;11.070;2023-11-21T13:53:27;12.30;99.90
4518;DHT22;2271;49.464;11.070;2023-11-21T13:55:54;12.70;99.90
4518;DHT22;2271;49.464;11.070;2023-11-21T13:58:25;12.50;99.90
4518;DHT22;2271;49.464;11.070;2023-11-21T14:01:10;12.20;99.90
4518;DHT22;2271;49.464;11.070;2023-11-21T14:03:54;11.90;99.90
4518;DHT22;2271;49.464;11.070;2023-11-21T14:06:26;11.60;99.90
4518;DHT22;2271;49.464;11.070;2023-11-21T14:09:00;11.30;99.90
4518;DHT22;2271;49.464;11.070;2023-11-21T14:11:30;11.10;99.90
4518;DHT22;2271;49.464;11.070;2023-11-21T14:13:56;11.00;99.90
4518;DHT22;2271;49.464;11.070;2023-11-21T14:16:23;11.00;99.90
4518;DHT22;2271;49.464;11.070;2023-11-21T14:18:49;11.00;99.90
4518;DHT22;2271;49.464;11.070;2023-11-21T14:21:22;11.00;99.90
4518;DHT22;2271;49.464;11.070;2023-11-21T14:23:48;11.00;99.90
4518;DHT22;2271;49.464;11.070;2023-11-21T14:26:14;10.90;99.90
4518;DHT22;2271;49.464;11.070;2023-11-21T14:28:41;10.90;99.90
4518;DHT22;2271;49.464;11.070;2023-11-21T14:31:07;10.90;99.90
4518;DHT22;2271;49.464;11.070;2023-11-21T14:33:33;10.90;99.90
4518;DHT22;2271;49.464;11.070;2023-11-21T14:35:59;10.80;99.90
4518;DHT22;2271;49.464;11.070;2023-11-21T14:38:24;10.80;99.90
4518;DHT22;2271;49.464;11.070;2023-11-21T14:40:50;10.60;99.90
4518;DHT22;2271;49.464;11.070;2023-11-21T14:43:15;10.50;99.90
4518;DHT22;2271;49.464;11.070;2023-11-21T14:45:42;10.50;99.90
4518;DHT22;2271;49.464;11.070;2023-11-21T14:48:08;10.60;99.90
4518;DHT22;2271;49.464;11.070;2023-11-21T14:50:42;10.50;99.90
4518;DHT22;2271;49.464;11.070;2023-11-21T14:53:11;10.40;99.90
4518;DHT22;2271;49.464;11.070;2023-11-21T14:55:39;10.40;99.90
4518;DHT22;2271;49.464;11.070;2023-11-21T14:58:19;10.50;99.90
4518;DHT22;2271;49.464;11.070;2023-11-21T15:00:55;10.50;99.90
4518;DHT22;2271;49.464;11.070;2023-11-21T15:03:28;10.60;99.90
4518;DHT22;2271;49.464;11.070;2023-11-21T15:06:01;10.60;99.90
4518;DHT22;2271;49.464;11.070;2023-11-21T15:08:49;10.60;99.90
4518;DHT22;2271;49.464;11.070;2023-11-21T15:11:20;10.60;99.90
4518;DHT22;2271;49.464;11.070;2023-11-21T15:13:50;10.60;99.90
4518;DHT22;2271;49.464;11.070;2023-11-21T15:16:17;10.60;99.90
4518;DHT22;2271;49.464;11.070;2023-11-21T15:18:44;10.60;99.90
4518;DHT22;2271;49.464;11.070;2023-11-21T15:21:09;10.60;99.90
4518;DHT22;2271;49.464;11.070;2023-11-21T15:23:37;10.60;99.90
4518;DHT22;2271;49.464;11.070;2023-11-21T15:26:04;10.70;99.90
4518;DHT22;2271;49.464;11.070;2023-11-21T15:28:30;10.60;99.90
4518;DHT22;2271;49.464;11.070;2023-11-21T15:30:58;10.60;99.90
4518;DHT22;2271;49.464;11.070;2023-11-21T15:33:23;10.60;99.90
4518;DHT22;2271;49.464;11.070;2023-11-21T15:35:49;10.50;99.90
4518;DHT22;2271;49.464;11.070;2023-11-21T15:38:15;10.60;99.90
4518;DHT22;2271;49.464;11.070;2023-11-21T15:40:41;10.50;99.90
4518;DHT22;2271;49.464;11.070;2023-11-21T15:43:08;10.50;99.90
4518;DHT22;2271;49.464;11.070;2023-11-21T15:45:34;10.50;99.90
4518;DHT22;2271;49.464;11.070;2023-11-21T15:47:59;10.50;99.90
4518;DHT22;2271;49.464;11.070;2023-11-21T15:50:26;10.50;99.90
4518;DHT22;2271;49.464;11.070;2023-11-21T15:52:52;10.50;99.90
4518;DHT22;2271;49.464;11.070;2023-11-21T15:55:18;10.50;99.90
4518;DHT22;2271;49.464;11.070;2023-11-21T15:57:44;10.50;99.90
4518;DHT22;2271;49.464;11.070;2023-11-21T16:00:11;10.50;99.90
4518;DHT22;2271;49.464;11.070;2023-11-21T16:02:42;10.50;99.90
4518;DHT22;2271;49.464;11.070;2023-11-21T16:05:09;10.40;99.90
4518;DHT22;2271;49.464;11.070;2023-11-21T16:07:35;10.40;99.90
4518;DHT22;2271;49.464;11.070;2023-11-21T16:10:02;10.40;99.90